Itsas Zain — EA-5172 — position and weather

sailwx.info

Track history (hours):
 
Tides and Currents Weather Stations Pressure Air Temp Water Temp Dewpoint Dewpoint Depression Visibility Wind Speed Wind Dir Waves Ship Positions

Itsas Zain

Last reported at 2018-Jan-21 18:09 UTC. Time now 2018-Jan-22 16:26 UTC.
Position N 43°20' W 003°02'.

Length 20 m.

Type: Law enforcement. MMSI: 224025660.

Date/timePositionNaut miles runAvg speedWind from/ knotsBaromVisibWave heightAir tempDewpointWater temp
2018-Jan-21 18:09N 43°20' W 003°02'0 0.0
2018-Jan-21 18:00N 43°20' W 003°02'0 0.0
2018-Jan-21 17:30N 43°20' W 003°02'0 0.0
2018-Jan-21 17:00N 43°20' W 003°02'0 0.0
2018-Jan-21 16:30N 43°20' W 003°02'0 0.0
2018-Jan-21 16:00N 43°20' W 003°02'0 0.0
2018-Jan-21 15:30N 43°20' W 003°02'0 0.0
2018-Jan-21 15:00N 43°20' W 003°02'0 0.0
2018-Jan-21 14:30N 43°20' W 003°02'0 0.0
2018-Jan-21 14:00N 43°20' W 003°02'0 0.0
2018-Jan-21 13:30N 43°20' W 003°02'0 0.0
2018-Jan-21 13:00N 43°20' W 003°02'0 0.0
2018-Jan-21 12:30N 43°20' W 003°02'0 0.0
2018-Jan-21 12:00N 43°20' W 003°02'0 0.7
2018-Jan-21 11:30N 43°20' W 003°02'1 1.5
2018-Jan-21 11:00N 43°19' W 003°01'2 4.4
2018-Jan-21 10:30N 43°18' W 002°59'1 1.7
2018-Jan-21 10:00N 43°19' W 002°59'2 4.0
2018-Jan-21 09:30N 43°20' W 003°02'0 0.0
2018-Jan-20 15:28N 43°20' W 003°02'0 0.0
2018-Jan-20 15:00N 43°20' W 003°02'0 0.0
2018-Jan-20 14:30N 43°20' W 003°02'0 0.0
2018-Jan-20 14:00N 43°20' W 003°02'0 0.0
2018-Jan-20 13:30N 43°20' W 003°02'0 0.0
2018-Jan-20 13:00N 43°20' W 003°02'0 0.0
2018-Jan-20 12:30N 43°20' W 003°02'0 0.0
2018-Jan-20 12:00N 43°20' W 003°02'1 2.5
2018-Jan-20 11:30N 43°21' W 003°02'3 5.6
2018-Jan-20 11:00N 43°22' W 003°05'1 2.4
2018-Jan-20 10:30N 43°22' W 003°04'3 5.6
2018-Jan-20 10:00N 43°20' W 003°02'0 0.0
2018-Jan-19 11:53N 43°20' W 003°02'0 0.0
2018-Jan-19 11:30N 43°20' W 003°02'1 1.2
2018-Jan-19 11:00N 43°19' W 003°01'1 1.5
2018-Jan-19 10:30N 43°19' W 003°00'3 6.5
2018-Jan-19 10:00N 43°22' W 003°03'4 7.3
2018-Jan-19 09:30N 43°22' W 003°08'3 6.6
2018-Jan-19 09:00N 43°22' W 003°03'2 4.8
2018-Jan-19 08:30N 43°20' W 003°02'0 0.0
2018-Jan-19 08:00N 43°20' W 003°02'0 0.0
2018-Jan-19 07:30N 43°20' W 003°02'0 0.0
2018-Jan-19 07:00N 43°20' W 003°02'0 0.0
2018-Jan-19 06:30N 43°20' W 003°02'0 0.0
2018-Jan-19 06:00N 43°20' W 003°02'0 0.0
2018-Jan-19 05:30N 43°20' W 003°02'0 0.0
2018-Jan-19 05:00N 43°20' W 003°02'0 0.0
2018-Jan-19 04:30N 43°20' W 003°02'0 0.0
2018-Jan-19 04:00N 43°20' W 003°02'0 0.0
2018-Jan-19 03:30N 43°20' W 003°02'0 0.0
2018-Jan-19 03:00N 43°20' W 003°02'0 0.0
2018-Jan-19 02:30N 43°20' W 003°02'0 0.0
2018-Jan-19 02:00N 43°20' W 003°02'0 0.0
2018-Jan-19 01:30N 43°20' W 003°02'0 0.0
2018-Jan-19 01:00N 43°20' W 003°02'0 0.0
2018-Jan-19 00:30N 43°20' W 003°02'0 0.0
2018-Jan-19 00:00N 43°20' W 003°02'0 0.0
2018-Jan-18 23:30N 43°20' W 003°02'0 0.0
2018-Jan-18 23:00N 43°20' W 003°02'0 0.0
2018-Jan-18 22:30N 43°20' W 003°02'0 0.0
2018-Jan-18 22:00N 43°20' W 003°02'0 0.0
2018-Jan-18 21:30N 43°20' W 003°02'0 0.0
2018-Jan-18 21:00N 43°20' W 003°02'0 0.0
2018-Jan-18 20:30N 43°20' W 003°02'0 0.0
2018-Jan-18 20:00N 43°20' W 003°02'0 0.0
2018-Jan-18 19:30N 43°20' W 003°02'0 0.0
2018-Jan-18 19:00N 43°20' W 003°02'0 0.0
2018-Jan-18 18:30N 43°20' W 003°02'0 0.0
2018-Jan-18 18:00N 43°20' W 003°02'0 0.5
2018-Jan-18 17:30N 43°20' W 003°02'1 1.5
2018-Jan-18 17:00N 43°21' W 003°02'3 6.1
2018-Jan-18 16:30N 43°23' W 003°05'3 5.4
2018-Jan-18 15:58N 43°21' W 003°02'1 2.7
2018-Jan-18 15:30N 43°20' W 003°02'0 0.0
2018-Jan-18 15:00N 43°20' W 003°02'0 0.0
2018-Jan-18 14:30N 43°20' W 003°02'0 0.0
2018-Jan-18 14:00N 43°20' W 003°02'0 0.0
2018-Jan-18 13:30N 43°20' W 003°02'0 0.0
2018-Jan-18 13:00N 43°20' W 003°02'0 0.0
2018-Jan-18 12:30N 43°20' W 003°02'0 0.0
2018-Jan-18 12:01N 43°20' W 003°02'0 0.0
2018-Jan-18 11:30N 43°20' W 003°02'0 0.0
2018-Jan-18 11:01N 43°20' W 003°02'0 0.0
2018-Jan-18 10:30N 43°20' W 003°02'0 0.0
2018-Jan-18 10:01N 43°20' W 003°02'0 0.0
2018-Jan-18 09:30N 43°20' W 003°02'0 0.0
2018-Jan-18 09:00N 43°20' W 003°02'0 0.0
2018-Jan-18 08:31N 43°20' W 003°02'0 0.0
2018-Jan-18 08:00N 43°20' W 003°02'0 0.0
2018-Jan-18 07:30N 43°20' W 003°02'0 0.0
2018-Jan-18 07:00N 43°20' W 003°02'0 0.0
2018-Jan-18 06:30N 43°20' W 003°02'0 0.0
2018-Jan-18 06:00N 43°20' W 003°02'0 0.0
2018-Jan-18 05:30N 43°20' W 003°02'0 0.0
2018-Jan-18 05:00N 43°20' W 003°02'0 0.0
2018-Jan-18 04:31N 43°20' W 003°02'0 0.0
2018-Jan-18 04:00N 43°20' W 003°02'0 0.0
2018-Jan-18 03:30N 43°20' W 003°02'0 0.0
2018-Jan-18 03:00N 43°20' W 003°02'0 0.0
2018-Jan-18 02:30N 43°20' W 003°02'0 0.0
2018-Jan-18 01:59N 43°20' W 003°02'0 0.0
2018-Jan-18 01:30N 43°20' W 003°02'0 0.0
2018-Jan-18 01:00N 43°20' W 003°02'0 0.0
2018-Jan-18 00:00N 43°20' W 003°02'0 0.0
2018-Jan-17 23:57N 43°20' W 003°02'  
Track history (hours):
 
Tides and Currents Weather Stations Pressure Air Temp Water Temp Dewpoint Dewpoint Depression Visibility Wind Speed Wind Dir Waves Ship Positions

Itsas Zain

Last reported at 2018-Jan-21 18:09 UTC. Time now 2018-Jan-22 16:26 UTC.
Position N 43°20' W 003°02'.

Length 20 m.

Type: Law enforcement. MMSI: 224025660.

Date/timePositionNaut miles runAvg speedWind from/ knotsBaromVisibWave heightAir tempDewpointWater temp
2018-Jan-21 18:09N 43°20' W 003°02'0 0.0
2018-Jan-21 18:00N 43°20' W 003°02'0 0.0
2018-Jan-21 17:30N 43°20' W 003°02'0 0.0
2018-Jan-21 17:00N 43°20' W 003°02'0 0.0
2018-Jan-21 16:30N 43°20' W 003°02'0 0.0
2018-Jan-21 16:00N 43°20' W 003°02'0 0.0
2018-Jan-21 15:30N 43°20' W 003°02'0 0.0
2018-Jan-21 15:00N 43°20' W 003°02'0 0.0
2018-Jan-21 14:30N 43°20' W 003°02'0 0.0
2018-Jan-21 14:00N 43°20' W 003°02'0 0.0
2018-Jan-21 13:30N 43°20' W 003°02'0 0.0
2018-Jan-21 13:00N 43°20' W 003°02'0 0.0
2018-Jan-21 12:30N 43°20' W 003°02'0 0.0
2018-Jan-21 12:00N 43°20' W 003°02'0 0.7
2018-Jan-21 11:30N 43°20' W 003°02'1 1.5
2018-Jan-21 11:00N 43°19' W 003°01'2 4.4
2018-Jan-21 10:30N 43°18' W 002°59'1 1.7
2018-Jan-21 10:00N 43°19' W 002°59'2 4.0
2018-Jan-21 09:30N 43°20' W 003°02'0 0.0
2018-Jan-20 15:28N 43°20' W 003°02'0 0.0
2018-Jan-20 15:00N 43°20' W 003°02'0 0.0
2018-Jan-20 14:30N 43°20' W 003°02'0 0.0
2018-Jan-20 14:00N 43°20' W 003°02'0 0.0
2018-Jan-20 13:30N 43°20' W 003°02'0 0.0
2018-Jan-20 13:00N 43°20' W 003°02'0 0.0
2018-Jan-20 12:30N 43°20' W 003°02'0 0.0
2018-Jan-20 12:00N 43°20' W 003°02'1 2.5
2018-Jan-20 11:30N 43°21' W 003°02'3 5.6
2018-Jan-20 11:00N 43°22' W 003°05'1 2.4
2018-Jan-20 10:30N 43°22' W 003°04'3 5.6
2018-Jan-20 10:00N 43°20' W 003°02'0 0.0
2018-Jan-19 11:53N 43°20' W 003°02'0 0.0
2018-Jan-19 11:30N 43°20' W 003°02'1 1.2
2018-Jan-19 11:00N 43°19' W 003°01'1 1.5
2018-Jan-19 10:30N 43°19' W 003°00'3 6.5
2018-Jan-19 10:00N 43°22' W 003°03'4 7.3
2018-Jan-19 09:30N 43°22' W 003°08'3 6.6
2018-Jan-19 09:00N 43°22' W 003°03'2 4.8
2018-Jan-19 08:30N 43°20' W 003°02'0 0.0
2018-Jan-19 08:00N 43°20' W 003°02'0 0.0
2018-Jan-19 07:30N 43°20' W 003°02'0 0.0
2018-Jan-19 07:00N 43°20' W 003°02'0 0.0
2018-Jan-19 06:30N 43°20' W 003°02'0 0.0
2018-Jan-19 06:00N 43°20' W 003°02'0 0.0
2018-Jan-19 05:30N 43°20' W 003°02'0 0.0
2018-Jan-19 05:00N 43°20' W 003°02'0 0.0
2018-Jan-19 04:30N 43°20' W 003°02'0 0.0
2018-Jan-19 04:00N 43°20' W 003°02'0 0.0
2018-Jan-19 03:30N 43°20' W 003°02'0 0.0
2018-Jan-19 03:00N 43°20' W 003°02'0 0.0
2018-Jan-19 02:30N 43°20' W 003°02'0 0.0
2018-Jan-19 02:00N 43°20' W 003°02'0 0.0
2018-Jan-19 01:30N 43°20' W 003°02'0 0.0
2018-Jan-19 01:00N 43°20' W 003°02'0 0.0
2018-Jan-19 00:30N 43°20' W 003°02'0 0.0
2018-Jan-19 00:00N 43°20' W 003°02'0 0.0
2018-Jan-18 23:30N 43°20' W 003°02'0 0.0
2018-Jan-18 23:00N 43°20' W 003°02'0 0.0
2018-Jan-18 22:30N 43°20' W 003°02'0 0.0
2018-Jan-18 22:00N 43°20' W 003°02'0 0.0
2018-Jan-18 21:30N 43°20' W 003°02'0 0.0
2018-Jan-18 21:00N 43°20' W 003°02'0 0.0
2018-Jan-18 20:30N 43°20' W 003°02'0 0.0
2018-Jan-18 20:00N 43°20' W 003°02'0 0.0
2018-Jan-18 19:30N 43°20' W 003°02'0 0.0
2018-Jan-18 19:00N 43°20' W 003°02'0 0.0
2018-Jan-18 18:30N 43°20' W 003°02'0 0.0
2018-Jan-18 18:00N 43°20' W 003°02'0 0.5
2018-Jan-18 17:30N 43°20' W 003°02'1 1.5
2018-Jan-18 17:00N 43°21' W 003°02'3 6.1
2018-Jan-18 16:30N 43°23' W 003°05'3 5.4
2018-Jan-18 15:58N 43°21' W 003°02'1 2.7
2018-Jan-18 15:30N 43°20' W 003°02'0 0.0
2018-Jan-18 15:00N 43°20' W 003°02'0 0.0
2018-Jan-18 14:30N 43°20' W 003°02'0 0.0
2018-Jan-18 14:00N 43°20' W 003°02'0 0.0
2018-Jan-18 13:30N 43°20' W 003°02'0 0.0
2018-Jan-18 13:00N 43°20' W 003°02'0 0.0
2018-Jan-18 12:30N 43°20' W 003°02'0 0.0
2018-Jan-18 12:01N 43°20' W 003°02'0 0.0
2018-Jan-18 11:30N 43°20' W 003°02'0 0.0
2018-Jan-18 11:01N 43°20' W 003°02'0 0.0
2018-Jan-18 10:30N 43°20' W 003°02'0 0.0
2018-Jan-18 10:01N 43°20' W 003°02'0 0.0
2018-Jan-18 09:30N 43°20' W 003°02'0 0.0
2018-Jan-18 09:00N 43°20' W 003°02'0 0.0
2018-Jan-18 08:31N 43°20' W 003°02'0 0.0
2018-Jan-18 08:00N 43°20' W 003°02'0 0.0
2018-Jan-18 07:30N 43°20' W 003°02'0 0.0
2018-Jan-18 07:00N 43°20' W 003°02'0 0.0
2018-Jan-18 06:30N 43°20' W 003°02'0 0.0
2018-Jan-18 06:00N 43°20' W 003°02'0 0.0
2018-Jan-18 05:30N 43°20' W 003°02'0 0.0
2018-Jan-18 05:00N 43°20' W 003°02'0 0.0
2018-Jan-18 04:31N 43°20' W 003°02'0 0.0
2018-Jan-18 04:00N 43°20' W 003°02'0 0.0
2018-Jan-18 03:30N 43°20' W 003°02'0 0.0
2018-Jan-18 03:00N 43°20' W 003°02'0 0.0
2018-Jan-18 02:30N 43°20' W 003°02'0 0.0
2018-Jan-18 01:59N 43°20' W 003°02'0 0.0
2018-Jan-18 01:30N 43°20' W 003°02'0 0.0
2018-Jan-18 01:00N 43°20' W 003°02'0 0.0
2018-Jan-18 00:00N 43°20' W 003°02'0 0.0
2018-Jan-17 23:57N 43°20' W 003°02'  

Dump ship's entire track history